sensor_id;sensor_type;location;lat;lon;timestamp;P1;durP1;ratioP1;P2;durP2;ratioP2
60653;SDS011;46476;53.614;10.048;2022-08-01T00:01:30;4.13;;;3.72;;
60653;SDS011;46476;53.614;10.048;2022-08-01T00:03:56;3.63;;;3.33;;
60653;SDS011;46476;53.614;10.048;2022-08-01T00:06:21;4.55;;;3.28;;
60653;SDS011;46476;53.614;10.048;2022-08-01T00:08:46;5.05;;;3.30;;
60653;SDS011;46476;53.614;10.048;2022-08-01T00:11:12;4.80;;;3.40;;
60653;SDS011;46476;53.614;10.048;2022-08-01T00:13:37;3.55;;;3.25;;
60653;SDS011;46476;53.614;10.048;2022-08-01T00:16:02;3.88;;;3.47;;
60653;SDS011;46476;53.614;10.048;2022-08-01T00:18:28;5.60;;;3.50;;
60653;SDS011;46476;53.614;10.048;2022-08-01T00:20:53;3.58;;;3.28;;
60653;SDS011;46476;53.614;10.048;2022-08-01T00:23:18;4.82;;;3.55;;
60653;SDS011;46476;53.614;10.048;2022-08-01T00:25:44;4.45;;;3.92;;
60653;SDS011;46476;53.614;10.048;2022-08-01T00:28:09;4.38;;;3.97;;
60653;SDS011;46476;53.614;10.048;2022-08-01T00:30:35;4.32;;;3.92;;
60653;SDS011;46476;53.614;10.048;2022-08-01T00:33:01;5.25;;;4.03;;
60653;SDS011;46476;53.614;10.048;2022-08-01T00:35:26;3.92;;;3.53;;
60653;SDS011;46476;53.614;10.048;2022-08-01T00:37:52;5.25;;;4.32;;
60653;SDS011;46476;53.614;10.048;2022-08-01T00:40:17;4.03;;;3.67;;
60653;SDS011;46476;53.614;10.048;2022-08-01T00:42:43;5.63;;;4.25;;
60653;SDS011;46476;53.614;10.048;2022-08-01T00:45:08;5.25;;;4.70;;
60653;SDS011;46476;53.614;10.048;2022-08-01T00:47:34;5.15;;;4.53;;
60653;SDS011;46476;53.614;10.048;2022-08-01T00:49:59;5.40;;;4.90;;
60653;SDS011;46476;53.614;10.048;2022-08-01T00:52:24;4.93;;;4.43;;
60653;SDS011;46476;53.614;10.048;2022-08-01T00:54:50;5.88;;;4.45;;
60653;SDS011;46476;53.614;10.048;2022-08-01T00:57:16;5.35;;;4.47;;
60653;SDS011;46476;53.614;10.048;2022-08-01T00:59:41;5.28;;;4.40;;
60653;SDS011;46476;53.614;10.048;2022-08-01T01:02:06;4.78;;;4.25;;
60653;SDS011;46476;53.614;10.048;2022-08-01T01:04:32;4.93;;;4.18;;
60653;SDS011;46476;53.614;10.048;2022-08-01T01:07:00;5.22;;;4.28;;
60653;SDS011;46476;53.614;10.048;2022-08-01T01:09:51;5.43;;;3.92;;
60653;SDS011;46476;53.614;10.048;2022-08-01T01:12:39;5.43;;;4.05;;
60653;SDS011;46476;53.614;10.048;2022-08-01T01:17:52;4.68;;;4.13;;
60653;SDS011;46476;53.614;10.048;2022-08-01T01:20:39;6.70;;;4.18;;
60653;SDS011;46476;53.614;10.048;2022-08-01T01:31:23;5.25;;;4.00;;
60653;SDS011;46476;53.614;10.048;2022-08-01T01:33:51;4.90;;;4.32;;
60653;SDS011;46476;53.614;10.048;2022-08-01T01:36:18;5.03;;;4.13;;
60653;SDS011;46476;53.614;10.048;2022-08-01T01:38:45;4.72;;;3.92;;
60653;SDS011;46476;53.614;10.048;2022-08-01T01:41:13;5.57;;;3.88;;
60653;SDS011;46476;53.614;10.048;2022-08-01T01:43:42;5.20;;;3.53;;
60653;SDS011;46476;53.614;10.048;2022-08-01T01:46:09;5.28;;;3.83;;
60653;SDS011;46476;53.614;10.048;2022-08-01T01:48:36;4.88;;;4.07;;
60653;SDS011;46476;53.614;10.048;2022-08-01T01:51:03;4.90;;;3.67;;
60653;SDS011;46476;53.614;10.048;2022-08-01T01:53:30;7.28;;;3.35;;
60653;SDS011;46476;53.614;10.048;2022-08-01T01:55:58;4.57;;;3.78;;
60653;SDS011;46476;53.614;10.048;2022-08-01T01:58:25;4.43;;;3.40;;
60653;SDS011;46476;53.614;10.048;2022-08-01T02:00:53;4.18;;;3.67;;
60653;SDS011;46476;53.614;10.048;2022-08-01T02:03:21;5.38;;;3.60;;
60653;SDS011;46476;53.614;10.048;2022-08-01T02:05:49;4.63;;;3.70;;
60653;SDS011;46476;53.614;10.048;2022-08-01T02:08:17;6.30;;;3.80;;
60653;SDS011;46476;53.614;10.048;2022-08-01T02:10:42;4.65;;;3.63;;
60653;SDS011;46476;53.614;10.048;2022-08-01T02:13:29;4.78;;;3.58;;
60653;SDS011;46476;53.614;10.048;2022-08-01T02:15:56;4.72;;;3.78;;
60653;SDS011;46476;53.614;10.048;2022-08-01T02:18:23;3.97;;;3.42;;
60653;SDS011;46476;53.614;10.048;2022-08-01T02:20:48;4.75;;;2.92;;
60653;SDS011;46476;53.614;10.048;2022-08-01T02:23:16;4.50;;;3.17;;
60653;SDS011;46476;53.614;10.048;2022-08-01T02:25:47;3.53;;;3.00;;
60653;SDS011;46476;53.614;10.048;2022-08-01T02:28:17;4.55;;;3.42;;
60653;SDS011;46476;53.614;10.048;2022-08-01T02:30:53;3.17;;;2.88;;
60653;SDS011;46476;53.614;10.048;2022-08-01T02:33:22;3.80;;;2.97;;
60653;SDS011;46476;53.614;10.048;2022-08-01T02:35:51;6.47;;;3.20;;
60653;SDS011;46476;53.614;10.048;2022-08-01T02:38:20;4.85;;;2.80;;
60653;SDS011;46476;53.614;10.048;2022-08-01T02:40:48;4.57;;;2.92;;
60653;SDS011;46476;53.614;10.048;2022-08-01T02:43:18;4.25;;;2.53;;
60653;SDS011;46476;53.614;10.048;2022-08-01T02:45:47;3.97;;;3.00;;
60653;SDS011;46476;53.614;10.048;2022-08-01T02:48:17;4.00;;;2.72;;
60653;SDS011;46476;53.614;10.048;2022-08-01T02:50:45;4.30;;;2.60;;
60653;SDS011;46476;53.614;10.048;2022-08-01T02:53:13;4.00;;;2.78;;
60653;SDS011;46476;53.614;10.048;2022-08-01T02:55:42;4.40;;;2.67;;
60653;SDS011;46476;53.614;10.048;2022-08-01T02:58:10;2.97;;;2.67;;
60653;SDS011;46476;53.614;10.048;2022-08-01T03:00:37;3.40;;;2.42;;
60653;SDS011;46476;53.614;10.048;2022-08-01T03:03:05;5.63;;;2.80;;
60653;SDS011;46476;53.614;10.048;2022-08-01T03:05:33;4.82;;;2.60;;
60653;SDS011;46476;53.614;10.048;2022-08-01T03:08:00;3.78;;;2.53;;
60653;SDS011;46476;53.614;10.048;2022-08-01T03:10:27;3.78;;;2.55;;
60653;SDS011;46476;53.614;10.048;2022-08-01T03:12:54;3.03;;;2.60;;
60653;SDS011;46476;53.614;10.048;2022-08-01T03:15:22;4.40;;;2.40;;
60653;SDS011;46476;53.614;10.048;2022-08-01T03:17:50;2.95;;;2.40;;
60653;SDS011;46476;53.614;10.048;2022-08-01T03:20:18;2.33;;;2.00;;
60653;SDS011;46476;53.614;10.048;2022-08-01T03:22:47;5.05;;;2.38;;
60653;SDS011;46476;53.614;10.048;2022-08-01T03:25:16;3.20;;;2.40;;
60653;SDS011;46476;53.614;10.048;2022-08-01T03:27:43;2.53;;;2.22;;
60653;SDS011;46476;53.614;10.048;2022-08-01T03:30:10;4.57;;;2.10;;
60653;SDS011;46476;53.614;10.048;2022-08-01T03:32:37;4.85;;;2.25;;
60653;SDS011;46476;53.614;10.048;2022-08-01T03:35:03;3.75;;;2.53;;
60653;SDS011;46476;53.614;10.048;2022-08-01T03:37:29;4.75;;;2.30;;
60653;SDS011;46476;53.614;10.048;2022-08-01T03:40:05;4.25;;;2.50;;
60653;SDS011;46476;53.614;10.048;2022-08-01T03:42:35;4.30;;;2.38;;
60653;SDS011;46476;53.614;10.048;2022-08-01T03:45:07;3.97;;;2.25;;
60653;SDS011;46476;53.614;10.048;2022-08-01T03:47:35;3.78;;;2.40;;
60653;SDS011;46476;53.614;10.048;2022-08-01T03:50:02;2.95;;;2.72;;
60653;SDS011;46476;53.614;10.048;2022-08-01T03:52:29;3.40;;;2.15;;
60653;SDS011;46476;53.614;10.048;2022-08-01T03:54:58;2.40;;;2.20;;
60653;SDS011;46476;53.614;10.048;2022-08-01T03:57:28;3.30;;;2.08;;
60653;SDS011;46476;53.614;10.048;2022-08-01T03:59:55;2.22;;;1.70;;
60653;SDS011;46476;53.614;10.048;2022-08-01T04:02:22;2.95;;;1.83;;
60653;SDS011;46476;53.614;10.048;2022-08-01T04:04:48;2.63;;;2.03;;
60653;SDS011;46476;53.614;10.048;2022-08-01T04:07:24;2.47;;;1.55;;
60653;SDS011;46476;53.614;10.048;2022-08-01T04:09:53;2.17;;;1.70;;
60653;SDS011;46476;53.614;10.048;2022-08-01T04:12:19;8.30;;;1.80;;
60653;SDS011;46476;53.614;10.048;2022-08-01T04:14:45;1.90;;;1.65;;
60653;SDS011;46476;53.614;10.048;2022-08-01T04:17:10;2.20;;;1.80;;
60653;SDS011;46476;53.614;10.048;2022-08-01T04:19:36;2.60;;;1.70;;
60653;SDS011;46476;53.614;10.048;2022-08-01T04:22:01;1.65;;;1.48;;
60653;SDS011;46476;53.614;10.048;2022-08-01T04:24:27;3.45;;;1.70;;
60653;SDS011;46476;53.614;10.048;2022-08-01T04:26:55;3.70;;;1.92;;
60653;SDS011;46476;53.614;10.048;2022-08-01T04:29:23;1.60;;;1.50;;
60653;SDS011;46476;53.614;10.048;2022-08-01T04:31:50;1.58;;;1.23;;
60653;SDS011;46476;53.614;10.048;2022-08-01T04:34:20;3.95;;;1.50;;
60653;SDS011;46476;53.614;10.048;2022-08-01T04:36:47;2.38;;;1.42;;
60653;SDS011;46476;53.614;10.048;2022-08-01T04:39:15;1.95;;;1.60;;
60653;SDS011;46476;53.614;10.048;2022-08-01T04:41:43;1.80;;;1.42;;
60653;SDS011;46476;53.614;10.048;2022-08-01T04:44:13;3.25;;;1.35;;
60653;SDS011;46476;53.614;10.048;2022-08-01T04:46:39;2.13;;;1.27;;
60653;SDS011;46476;53.614;10.048;2022-08-01T04:49:06;3.65;;;1.35;;
60653;SDS011;46476;53.614;10.048;2022-08-01T04:51:33;4.63;;;1.65;;
60653;SDS011;46476;53.614;10.048;2022-08-01T04:53:59;1.85;;;1.17;;
60653;SDS011;46476;53.614;10.048;2022-08-01T04:56:26;2.50;;;1.50;;
60653;SDS011;46476;53.614;10.048;2022-08-01T04:58:52;2.25;;;1.38;;
60653;SDS011;46476;53.614;10.048;2022-08-01T05:01:37;2.72;;;1.67;;
60653;SDS011;46476;53.614;10.048;2022-08-01T05:04:03;4.80;;;1.50;;
60653;SDS011;46476;53.614;10.048;2022-08-01T05:06:28;2.70;;;1.63;;
60653;SDS011;46476;53.614;10.048;2022-08-01T05:08:53;2.95;;;1.20;;
60653;SDS011;46476;53.614;10.048;2022-08-01T05:11:19;1.55;;;1.20;;
60653;SDS011;46476;53.614;10.048;2022-08-01T05:13:44;3.58;;;1.23;;
60653;SDS011;46476;53.614;10.048;2022-08-01T05:16:09;2.13;;;1.55;;
60653;SDS011;46476;53.614;10.048;2022-08-01T05:18:35;1.27;;;1.00;;
60653;SDS011;46476;53.614;10.048;2022-08-01T05:21:00;1.40;;;1.02;;
60653;SDS011;46476;53.614;10.048;2022-08-01T05:23:26;1.48;;;0.90;;
60653;SDS011;46476;53.614;10.048;2022-08-01T05:25:52;1.65;;;0.80;;
60653;SDS011;46476;53.614;10.048;2022-08-01T05:28:17;0.75;;;0.63;;
60653;SDS011;46476;53.614;10.048;2022-08-01T05:30:42;0.73;;;0.60;;
60653;SDS011;46476;53.614;10.048;2022-08-01T05:33:08;1.23;;;0.70;;
60653;SDS011;46476;53.614;10.048;2022-08-01T05:35:33;1.48;;;0.75;;
60653;SDS011;46476;53.614;10.048;2022-08-01T05:37:58;1.20;;;1.10;;
60653;SDS011;46476;53.614;10.048;2022-08-01T05:40:24;1.13;;;0.70;;
60653;SDS011;46476;53.614;10.048;2022-08-01T05:42:49;2.35;;;0.80;;
60653;SDS011;46476;53.614;10.048;2022-08-01T05:45:14;14.52;;;3.30;;
60653;SDS011;46476;53.614;10.048;2022-08-01T05:47:40;8.15;;;2.50;;
60653;SDS011;46476;53.614;10.048;2022-08-01T05:50:05;3.80;;;1.67;;
60653;SDS011;46476;53.614;10.048;2022-08-01T05:52:31;4.90;;;1.50;;
60653;SDS011;46476;53.614;10.048;2022-08-01T05:54:57;3.67;;;1.35;;
60653;SDS011;46476;53.614;10.048;2022-08-01T05:57:22;6.28;;;2.00;;
60653;SDS011;46476;53.614;10.048;2022-08-01T05:59:48;7.72;;;1.13;;
60653;SDS011;46476;53.614;10.048;2022-08-01T06:02:13;2.00;;;1.10;;
60653;SDS011;46476;53.614;10.048;2022-08-01T06:04:38;2.50;;;1.00;;
60653;SDS011;46476;53.614;10.048;2022-08-01T06:07:04;2.88;;;0.90;;
60653;SDS011;46476;53.614;10.048;2022-08-01T06:09:29;1.80;;;0.90;;
60653;SDS011;46476;53.614;10.048;2022-08-01T06:11:55;4.30;;;1.00;;
60653;SDS011;46476;53.614;10.048;2022-08-01T06:14:21;3.33;;;0.80;;
60653;SDS011;46476;53.614;10.048;2022-08-01T06:16:46;2.42;;;1.00;;
60653;SDS011;46476;53.614;10.048;2022-08-01T06:19:11;2.00;;;0.80;;
60653;SDS011;46476;53.614;10.048;2022-08-01T06:21:37;2.13;;;0.82;;
60653;SDS011;46476;53.614;10.048;2022-08-01T06:24:02;3.13;;;0.75;;
60653;SDS011;46476;53.614;10.048;2022-08-01T06:26:28;3.47;;;1.23;;
60653;SDS011;46476;53.614;10.048;2022-08-01T06:28:53;3.63;;;1.13;;
60653;SDS011;46476;53.614;10.048;2022-08-01T06:31:18;3.88;;;0.95;;
60653;SDS011;46476;53.614;10.048;2022-08-01T06:33:44;2.72;;;0.93;;
60653;SDS011;46476;53.614;10.048;2022-08-01T06:36:09;4.38;;;0.90;;
60653;SDS011;46476;53.614;10.048;2022-08-01T06:38:35;3.22;;;0.90;;
60653;SDS011;46476;53.614;10.048;2022-08-01T06:41:00;4.28;;;0.98;;
60653;SDS011;46476;53.614;10.048;2022-08-01T06:43:25;3.30;;;1.00;;
60653;SDS011;46476;53.614;10.048;2022-08-01T06:45:51;3.42;;;0.98;;
60653;SDS011;46476;53.614;10.048;2022-08-01T06:48:16;3.80;;;1.10;;
60653;SDS011;46476;53.614;10.048;2022-08-01T06:50:41;4.80;;;1.20;;
60653;SDS011;46476;53.614;10.048;2022-08-01T06:53:07;3.55;;;1.33;;
60653;SDS011;46476;53.614;10.048;2022-08-01T06:55:32;6.03;;;1.38;;
60653;SDS011;46476;53.614;10.048;2022-08-01T06:57:58;3.38;;;1.40;;
60653;SDS011;46476;53.614;10.048;2022-08-01T07:00:23;5.85;;;1.63;;
60653;SDS011;46476;53.614;10.048;2022-08-01T07:02:50;2.65;;;1.20;;
60653;SDS011;46476;53.614;10.048;2022-08-01T07:05:18;4.82;;;1.50;;
60653;SDS011;46476;53.614;10.048;2022-08-01T07:07:43;4.93;;;1.80;;
60653;SDS011;46476;53.614;10.048;2022-08-01T07:10:09;6.45;;;2.05;;
60653;SDS011;46476;53.614;10.048;2022-08-01T07:12:35;3.28;;;2.15;;
60653;SDS011;46476;53.614;10.048;2022-08-01T07:15:04;5.57;;;2.05;;
60653;SDS011;46476;53.614;10.048;2022-08-01T07:17:30;5.88;;;2.10;;
60653;SDS011;46476;53.614;10.048;2022-08-01T07:19:55;5.53;;;2.10;;
60653;SDS011;46476;53.614;10.048;2022-08-01T07:22:20;6.60;;;2.20;;
60653;SDS011;46476;53.614;10.048;2022-08-01T07:24:46;4.65;;;2.30;;
60653;SDS011;46476;53.614;10.048;2022-08-01T07:27:11;6.45;;;2.20;;
60653;SDS011;46476;53.614;10.048;2022-08-01T07:29:37;6.18;;;1.95;;
60653;SDS011;46476;53.614;10.048;2022-08-01T07:32:02;6.80;;;1.85;;
60653;SDS011;46476;53.614;10.048;2022-08-01T07:34:28;7.40;;;2.17;;
60653;SDS011;46476;53.614;10.048;2022-08-01T07:36:53;6.57;;;1.83;;
60653;SDS011;46476;53.614;10.048;2022-08-01T07:39:19;4.95;;;1.80;;
60653;SDS011;46476;53.614;10.048;2022-08-01T07:41:44;7.13;;;1.65;;
60653;SDS011;46476;53.614;10.048;2022-08-01T07:44:10;6.20;;;1.80;;
60653;SDS011;46476;53.614;10.048;2022-08-01T07:46:35;4.78;;;1.48;;
60653;SDS011;46476;53.614;10.048;2022-08-01T07:49:00;7.63;;;1.85;;
60653;SDS011;46476;53.614;10.048;2022-08-01T07:51:26;7.10;;;1.77;;
60653;SDS011;46476;53.614;10.048;2022-08-01T07:53:51;8.18;;;1.60;;
60653;SDS011;46476;53.614;10.048;2022-08-01T07:56:16;6.28;;;1.95;;
60653;SDS011;46476;53.614;10.048;2022-08-01T07:58:42;4.90;;;1.52;;
60653;SDS011;46476;53.614;10.048;2022-08-01T08:01:07;4.28;;;1.50;;
60653;SDS011;46476;53.614;10.048;2022-08-01T08:03:33;4.95;;;1.58;;
60653;SDS011;46476;53.614;10.048;2022-08-01T08:05:58;8.45;;;1.95;;
60653;SDS011;46476;53.614;10.048;2022-08-01T08:08:23;5.65;;;1.98;;
60653;SDS011;46476;53.614;10.048;2022-08-01T08:10:49;4.85;;;1.58;;
60653;SDS011;46476;53.614;10.048;2022-08-01T08:13:14;6.07;;;1.30;;
60653;SDS011;46476;53.614;10.048;2022-08-01T08:15:39;4.55;;;1.20;;
60653;SDS011;46476;53.614;10.048;2022-08-01T08:18:05;5.35;;;1.50;;
60653;SDS011;46476;53.614;10.048;2022-08-01T08:20:31;6.95;;;1.30;;
60653;SDS011;46476;53.614;10.048;2022-08-01T08:22:57;6.07;;;1.17;;
60653;SDS011;46476;53.614;10.048;2022-08-01T08:25:23;5.63;;;1.33;;
60653;SDS011;46476;53.614;10.048;2022-08-01T08:27:49;8.00;;;1.42;;
60653;SDS011;46476;53.614;10.048;2022-08-01T08:30:15;7.00;;;1.60;;
60653;SDS011;46476;53.614;10.048;2022-08-01T08:32:40;7.95;;;1.77;;
60653;SDS011;46476;53.614;10.048;2022-08-01T08:35:06;5.40;;;1.45;;
60653;SDS011;46476;53.614;10.048;2022-08-01T08:37:32;3.72;;;1.48;;
60653;SDS011;46476;53.614;10.048;2022-08-01T08:39:59;6.15;;;1.30;;
60653;SDS011;46476;53.614;10.048;2022-08-01T08:42:24;9.90;;;1.35;;
60653;SDS011;46476;53.614;10.048;2022-08-01T08:44:50;4.25;;;1.08;;
60653;SDS011;46476;53.614;10.048;2022-08-01T08:47:15;2.75;;;0.95;;
60653;SDS011;46476;53.614;10.048;2022-08-01T08:49:44;2.33;;;1.00;;
60653;SDS011;46476;53.614;10.048;2022-08-01T08:52:09;2.17;;;1.00;;
60653;SDS011;46476;53.614;10.048;2022-08-01T08:54:35;3.90;;;1.20;;
60653;SDS011;46476;53.614;10.048;2022-08-01T08:57:02;3.78;;;1.02;;
60653;SDS011;46476;53.614;10.048;2022-08-01T08:59:29;4.35;;;0.90;;
60653;SDS011;46476;53.614;10.048;2022-08-01T09:01:55;3.70;;;0.80;;
60653;SDS011;46476;53.614;10.048;2022-08-01T09:04:21;4.03;;;1.35;;
60653;SDS011;46476;53.614;10.048;2022-08-01T09:06:49;3.38;;;1.20;;
60653;SDS011;46476;53.614;10.048;2022-08-01T09:09:15;4.25;;;0.95;;
60653;SDS011;46476;53.614;10.048;2022-08-01T09:11:40;3.45;;;1.08;;
60653;SDS011;46476;53.614;10.048;2022-08-01T09:14:09;5.22;;;1.50;;
60653;SDS011;46476;53.614;10.048;2022-08-01T09:16:39;3.63;;;1.10;;
60653;SDS011;46476;53.614;10.048;2022-08-01T09:19:16;3.80;;;1.13;;
60653;SDS011;46476;53.614;10.048;2022-08-01T09:22:01;4.13;;;1.00;;
60653;SDS011;46476;53.614;10.048;2022-08-01T09:24:28;4.28;;;1.27;;
60653;SDS011;46476;53.614;10.048;2022-08-01T09:26:55;3.78;;;1.00;;
60653;SDS011;46476;53.614;10.048;2022-08-01T09:29:22;5.53;;;1.30;;
60653;SDS011;46476;53.614;10.048;2022-08-01T09:31:49;3.58;;;0.88;;
60653;SDS011;46476;53.614;10.048;2022-08-01T09:34:16;2.95;;;1.05;;
60653;SDS011;46476;53.614;10.048;2022-08-01T09:36:49;4.03;;;0.93;;
60653;SDS011;46476;53.614;10.048;2022-08-01T09:39:17;3.80;;;1.13;;
60653;SDS011;46476;53.614;10.048;2022-08-01T09:41:45;2.97;;;1.08;;
60653;SDS011;46476;53.614;10.048;2022-08-01T09:44:11;6.10;;;1.77;;
60653;SDS011;46476;53.614;10.048;2022-08-01T09:46:47;5.10;;;1.00;;
60653;SDS011;46476;53.614;10.048;2022-08-01T09:49:13;4.50;;;1.15;;
60653;SDS011;46476;53.614;10.048;2022-08-01T09:51:39;5.85;;;1.20;;
60653;SDS011;46476;53.614;10.048;2022-08-01T09:54:05;5.90;;;1.40;;
60653;SDS011;46476;53.614;10.048;2022-08-01T09:56:38;6.03;;;1.80;;
60653;SDS011;46476;53.614;10.048;2022-08-01T09:59:06;3.45;;;1.02;;
60653;SDS011;46476;53.614;10.048;2022-08-01T10:01:42;2.67;;;0.80;;
60653;SDS011;46476;53.614;10.048;2022-08-01T10:06:39;4.75;;;0.90;;
60653;SDS011;46476;53.614;10.048;2022-08-01T10:09:07;4.85;;;1.10;;
60653;SDS011;46476;53.614;10.048;2022-08-01T10:11:33;3.47;;;1.02;;
60653;SDS011;46476;53.614;10.048;2022-08-01T10:14:02;6.75;;;1.15;;
60653;SDS011;46476;53.614;10.048;2022-08-01T10:16:27;4.80;;;1.27;;
60653;SDS011;46476;53.614;10.048;2022-08-01T10:18:53;8.13;;;1.20;;
60653;SDS011;46476;53.614;10.048;2022-08-01T10:21:19;4.03;;;1.00;;
60653;SDS011;46476;53.614;10.048;2022-08-01T10:23:47;4.78;;;0.90;;
60653;SDS011;46476;53.614;10.048;2022-08-01T10:26:12;2.53;;;0.95;;
60653;SDS011;46476;53.614;10.048;2022-08-01T10:28:40;3.47;;;0.90;;
60653;SDS011;46476;53.614;10.048;2022-08-01T10:31:09;7.18;;;1.00;;
60653;SDS011;46476;53.614;10.048;2022-08-01T10:33:37;5.07;;;0.95;;
60653;SDS011;46476;53.614;10.048;2022-08-01T10:36:04;4.55;;;1.10;;
60653;SDS011;46476;53.614;10.048;2022-08-01T10:38:30;3.95;;;1.17;;
60653;SDS011;46476;53.614;10.048;2022-08-01T10:40:56;4.70;;;1.15;;
60653;SDS011;46476;53.614;10.048;2022-08-01T10:43:22;5.55;;;1.30;;
60653;SDS011;46476;53.614;10.048;2022-08-01T10:45:47;4.55;;;1.30;;
60653;SDS011;46476;53.614;10.048;2022-08-01T10:48:15;5.88;;;1.50;;
60653;SDS011;46476;53.614;10.048;2022-08-01T10:50:46;5.78;;;1.33;;
60653;SDS011;46476;53.614;10.048;2022-08-01T10:53:15;4.93;;;1.30;;
60653;SDS011;46476;53.614;10.048;2022-08-01T10:58:20;5.25;;;1.30;;
60653;SDS011;46476;53.614;10.048;2022-08-01T11:04:26;3.95;;;1.38;;
60653;SDS011;46476;53.614;10.048;2022-08-01T11:06:28;4.35;;;1.63;;
60653;SDS011;46476;53.614;10.048;2022-08-01T11:09:05;4.88;;;1.15;;
60653;SDS011;46476;53.614;10.048;2022-08-01T11:14:27;3.88;;;1.08;;
60653;SDS011;46476;53.614;10.048;2022-08-01T11:16:53;5.03;;;1.00;;
60653;SDS011;46476;53.614;10.048;2022-08-01T11:19:18;3.95;;;0.93;;
60653;SDS011;46476;53.614;10.048;2022-08-01T11:27:22;3.45;;;0.75;;
60653;SDS011;46476;53.614;10.048;2022-08-01T11:32:33;3.17;;;1.00;;
60653;SDS011;46476;53.614;10.048;2022-08-01T11:35:10;4.22;;;1.05;;
60653;SDS011;46476;53.614;10.048;2022-08-01T11:37:35;4.43;;;1.02;;
60653;SDS011;46476;53.614;10.048;2022-08-01T11:42:45;3.45;;;0.90;;
60653;SDS011;46476;53.614;10.048;2022-08-01T11:45:11;2.95;;;1.10;;
60653;SDS011;46476;53.614;10.048;2022-08-01T11:47:43;3.30;;;0.82;;
60653;SDS011;46476;53.614;10.048;2022-08-01T11:53:00;4.00;;;0.75;;
60653;SDS011;46476;53.614;10.048;2022-08-01T11:55:28;3.40;;;0.93;;
60653;SDS011;46476;53.614;10.048;2022-08-01T11:58:04;2.33;;;0.70;;
60653;SDS011;46476;53.614;10.048;2022-08-01T12:00:31;4.70;;;0.98;;
60653;SDS011;46476;53.614;10.048;2022-08-01T12:02:58;4.38;;;0.80;;
60653;SDS011;46476;53.614;10.048;2022-08-01T12:05:26;2.47;;;0.73;;
60653;SDS011;46476;53.614;10.048;2022-08-01T12:07:53;3.97;;;0.85;;
60653;SDS011;46476;53.614;10.048;2022-08-01T12:10:20;4.60;;;0.80;;
60653;SDS011;46476;53.614;10.048;2022-08-01T12:12:55;5.75;;;0.80;;
60653;SDS011;46476;53.614;10.048;2022-08-01T12:15:24;5.03;;;0.90;;
60653;SDS011;46476;53.614;10.048;2022-08-01T12:17:55;4.93;;;1.00;;
60653;SDS011;46476;53.614;10.048;2022-08-01T12:20:22;2.75;;;0.63;;
60653;SDS011;46476;53.614;10.048;2022-08-01T12:22:55;2.72;;;0.77;;
60653;SDS011;46476;53.614;10.048;2022-08-01T12:25:22;3.13;;;0.90;;
60653;SDS011;46476;53.614;10.048;2022-08-01T12:27:48;4.25;;;1.10;;
60653;SDS011;46476;53.614;10.048;2022-08-01T12:30:16;3.78;;;0.73;;
60653;SDS011;46476;53.614;10.048;2022-08-01T12:32:44;2.10;;;0.60;;
60653;SDS011;46476;53.614;10.048;2022-08-01T12:35:12;3.35;;;0.85;;
60653;SDS011;46476;53.614;10.048;2022-08-01T12:37:43;5.32;;;1.48;;
60653;SDS011;46476;53.614;10.048;2022-08-01T12:40:13;2.75;;;0.80;;
60653;SDS011;46476;53.614;10.048;2022-08-01T12:42:42;4.22;;;0.80;;
60653;SDS011;46476;53.614;10.048;2022-08-01T12:45:11;1.53;;;0.57;;
60653;SDS011;46476;53.614;10.048;2022-08-01T12:47:38;3.47;;;0.70;;
60653;SDS011;46476;53.614;10.048;2022-08-01T12:50:08;4.80;;;0.75;;
60653;SDS011;46476;53.614;10.048;2022-08-01T12:52:38;3.60;;;1.13;;
60653;SDS011;46476;53.614;10.048;2022-08-01T12:57:29;4.43;;;0.82;;
60653;SDS011;46476;53.614;10.048;2022-08-01T13:00:12;2.85;;;0.52;;
60653;SDS011;46476;53.614;10.048;2022-08-01T13:02:40;1.92;;;0.50;;
60653;SDS011;46476;53.614;10.048;2022-08-01T13:05:07;2.42;;;0.75;;
60653;SDS011;46476;53.614;10.048;2022-08-01T13:07:37;4.00;;;0.80;;
60653;SDS011;46476;53.614;10.048;2022-08-01T13:10:11;3.65;;;0.60;;
60653;SDS011;46476;53.614;10.048;2022-08-01T13:12:38;1.88;;;0.50;;
60653;SDS011;46476;53.614;10.048;2022-08-01T13:15:18;2.28;;;0.73;;
60653;SDS011;46476;53.614;10.048;2022-08-01T13:17:45;2.80;;;0.63;;
60653;SDS011;46476;53.614;10.048;2022-08-01T13:20:20;3.03;;;0.75;;
60653;SDS011;46476;53.614;10.048;2022-08-01T13:22:46;4.93;;;0.70;;
60653;SDS011;46476;53.614;10.048;2022-08-01T13:25:12;1.52;;;0.60;;
60653;SDS011;46476;53.614;10.048;2022-08-01T13:27:39;2.70;;;0.85;;
60653;SDS011;46476;53.614;10.048;2022-08-01T13:30:12;3.83;;;0.63;;
60653;SDS011;46476;53.614;10.048;2022-08-01T13:32:39;2.45;;;0.60;;
60653;SDS011;46476;53.614;10.048;2022-08-01T13:35:09;2.92;;;0.65;;
60653;SDS011;46476;53.614;10.048;2022-08-01T13:37:38;2.10;;;0.80;;
60653;SDS011;46476;53.614;10.048;2022-08-01T13:40:05;3.70;;;0.80;;
60653;SDS011;46476;53.614;10.048;2022-08-01T13:42:32;5.95;;;0.85;;
60653;SDS011;46476;53.614;10.048;2022-08-01T13:44:57;3.53;;;0.60;;
60653;SDS011;46476;53.614;10.048;2022-08-01T13:47:22;2.80;;;0.40;;
60653;SDS011;46476;53.614;10.048;2022-08-01T13:49:48;4.88;;;0.70;;
60653;SDS011;46476;53.614;10.048;2022-08-01T13:52:13;1.77;;;0.55;;
60653;SDS011;46476;53.614;10.048;2022-08-01T13:54:39;5.03;;;0.80;;
60653;SDS011;46476;53.614;10.048;2022-08-01T13:57:04;2.88;;;1.17;;
60653;SDS011;46476;53.614;10.048;2022-08-01T13:59:29;2.53;;;0.60;;
60653;SDS011;46476;53.614;10.048;2022-08-01T14:01:55;4.97;;;0.60;;
60653;SDS011;46476;53.614;10.048;2022-08-01T14:04:20;4.53;;;0.68;;
60653;SDS011;46476;53.614;10.048;2022-08-01T14:06:46;4.32;;;0.75;;
60653;SDS011;46476;53.614;10.048;2022-08-01T14:09:12;4.43;;;0.70;;
60653;SDS011;46476;53.614;10.048;2022-08-01T14:11:37;4.07;;;0.70;;
60653;SDS011;46476;53.614;10.048;2022-08-01T14:14:03;3.67;;;0.65;;
60653;SDS011;46476;53.614;10.048;2022-08-01T14:16:28;1.95;;;0.60;;
60653;SDS011;46476;53.614;10.048;2022-08-01T14:18:54;2.25;;;0.55;;
60653;SDS011;46476;53.614;10.048;2022-08-01T14:21:19;3.33;;;0.63;;
60653;SDS011;46476;53.614;10.048;2022-08-01T14:23:45;4.60;;;0.75;;
60653;SDS011;46476;53.614;10.048;2022-08-01T14:26:11;2.33;;;0.45;;
60653;SDS011;46476;53.614;10.048;2022-08-01T14:28:37;4.03;;;0.60;;
60653;SDS011;46476;53.614;10.048;2022-08-01T14:31:03;3.13;;;0.70;;
60653;SDS011;46476;53.614;10.048;2022-08-01T14:33:31;2.75;;;1.00;;
60653;SDS011;46476;53.614;10.048;2022-08-01T14:35:57;2.88;;;0.75;;
60653;SDS011;46476;53.614;10.048;2022-08-01T14:38:22;2.60;;;0.77;;
60653;SDS011;46476;53.614;10.048;2022-08-01T14:40:48;2.85;;;0.75;;
60653;SDS011;46476;53.614;10.048;2022-08-01T14:43:16;2.08;;;0.55;;
60653;SDS011;46476;53.614;10.048;2022-08-01T14:45:42;1.48;;;0.55;;
60653;SDS011;46476;53.614;10.048;2022-08-01T14:48:08;3.13;;;0.55;;
60653;SDS011;46476;53.614;10.048;2022-08-01T14:50:33;2.70;;;0.75;;
60653;SDS011;46476;53.614;10.048;2022-08-01T14:52:59;6.28;;;1.05;;
60653;SDS011;46476;53.614;10.048;2022-08-01T14:55:24;2.55;;;0.98;;
60653;SDS011;46476;53.614;10.048;2022-08-01T14:57:51;3.42;;;0.68;;
60653;SDS011;46476;53.614;10.048;2022-08-01T15:00:17;4.43;;;1.05;;
60653;SDS011;46476;53.614;10.048;2022-08-01T15:02:44;3.75;;;0.60;;
60653;SDS011;46476;53.614;10.048;2022-08-01T15:05:10;3.22;;;0.90;;
60653;SDS011;46476;53.614;10.048;2022-08-01T15:07:36;2.63;;;0.70;;
60653;SDS011;46476;53.614;10.048;2022-08-01T15:10:06;3.30;;;0.80;;
60653;SDS011;46476;53.614;10.048;2022-08-01T15:12:32;2.90;;;0.68;;